Terminal Aerodrome Forecast
Issued by NWS Wilmington, OH

Current Version | Previous Version | Text Only | Print | Product List | Glossary Off
Versions: 1 2 3 4 5 6 7 8 9 10 11 12 13 14 15 16 17 18 19 20 21 22

000
FTUS41 KILN 222055 AAC
TAFCVG
TAF AMD
KCVG 222055Z 2221/2324 04010KT P6SM SKC
     FM230000 05006KT P6SM SCT250
     FM231300 09006KT P6SM SCT250
     FM231700 13007KT P6SM FEW120 SCT250
     FM232000 15007KT P6SM BKN120=

USA.gov is the U.S. government's official web portal to all federal, state and local government web resources and services.